Time;durP1;ratioP1;P1;durP2;ratioP2;P2;SDS_P1;SDS_P2;PMS_P1;PMS_P2;Temp;Humidity;BMP_temperature;BMP_pressure;BME280_temperature;BME280_humidity;BME280_pressure;Samples;Min_cycle;Max_cycle;Signal;HPM_P1;HPM_P2
2022/07/15 00:01:51;;;;;;;;;;;;;;;12.61;84.57;101275.07;108206;1275;74957;-84
2022/07/15 00:04:18;;;;;;;;;;;;;;;12.59;84.38;101274.06;108200;1277;70141;-84
2022/07/15 00:06:45;;;;;;;;;;;;;;;12.56;84.99;101274.61;107919;1277;74287;-84
2022/07/15 00:09:12;;;;;;;;;;;;;;;12.53;85.45;101275.33;108148;1277;64088;-83
2022/07/15 00:11:38;;;;;;;;;;;;;;;12.48;85.51;101273.47;108129;1276;59281;-83
2022/07/15 00:14:05;;;;;;;;;;;;;;;12.45;86.67;101272.60;108158;1276;60579;-84
2022/07/15 00:16:32;;;;;;;;;;;;;;;12.42;87.06;101272.58;107950;1277;72518;-84
2022/07/15 00:18:59;;;;;;;;;;;;;;;12.39;87.29;101273.25;107960;1277;72942;-84
2022/07/15 00:21:26;;;;;;;;;;;;;;;12.38;86.86;101273.29;108113;1277;62162;-84
2022/07/15 00:23:53;;;;;;;;;;;;;;;12.34;86.92;101270.15;107831;1277;60487;-84
2022/07/15 00:26:20;;;;;;;;;;;;;;;12.31;86.98;101270.48;108111;1276;75307;-84
2022/07/15 00:28:47;;;;;;;;;;;;;;;12.28;87.63;101274.59;107981;1277;70804;-84
2022/07/15 00:31:14;;;;;;;;;;;;;;;12.24;87.96;101272.67;108125;1277;74283;-84
2022/07/15 00:33:42;;;;;;;;;;;;;;;12.20;88.25;101274.45;107824;1277;62316;-83
2022/07/15 00:36:09;;;;;;;;;;;;;;;12.19;87.87;101266.67;107956;1277;61332;-83
2022/07/15 00:38:36;;;;;;;;;;;;;;;12.16;87.82;101268.74;108193;1276;76842;-84
2022/07/15 00:41:06;;;;;;;;;;;;;;;12.14;88.40;101271.23;108143;1276;73983;-84
2022/07/15 00:43:33;;;;;;;;;;;;;;;12.14;88.66;101274.64;108193;1277;75178;-83
2022/07/15 00:46:00;;;;;;;;;;;;;;;12.15;88.98;101272.30;108195;1276;62517;-84
2022/07/15 00:48:27;;;;;;;;;;;;;;;12.14;88.76;101270.25;108252;1276;60409;-84
2022/07/15 00:50:53;;;;;;;;;;;;;;;12.14;88.67;101269.67;108274;1277;74886;-83
2022/07/15 00:53:21;;;;;;;;;;;;;;;12.14;88.97;101269.48;108243;1277;71404;-83
2022/07/15 00:55:48;;;;;;;;;;;;;;;12.14;89.06;101266.69;108474;1276;72992;-84
2022/07/15 00:58:20;;;;;;;;;;;;;;;12.14;89.42;101258.85;108442;1276;62247;-84
2022/07/15 01:00:48;;;;;;;;;;;;;;;12.16;89.71;101261.46;108603;1276;60564;-83
2022/07/15 01:03:16;;;;;;;;;;;;;;;12.19;89.83;101261.55;108505;1277;76009;-83
2022/07/15 01:05:44;;;;;;;;;;;;;;;12.22;89.90;101263.07;108454;1277;72061;-84
2022/07/15 01:08:10;;;;;;;;;;;;;;;12.26;89.63;101262.33;108394;1276;73182;-84
2022/07/15 01:10:38;;;;;;;;;;;;;;;12.30;89.72;101262.77;107945;1277;62211;-84
2022/07/15 01:13:05;;;;;;;;;;;;;;;12.34;89.22;101264.42;107946;1277;60233;-84
2022/07/15 01:15:33;;;;;;;;;;;;;;;12.39;89.04;101268.34;108167;1277;75398;-84
2022/07/15 01:18:01;;;;;;;;;;;;;;;12.43;88.65;101269.40;108110;1277;71286;-84
2022/07/15 01:20:28;;;;;;;;;;;;;;;12.47;88.24;101266.20;107827;1276;430891;-84
2022/07/15 01:22:55;;;;;;;;;;;;;;;12.50;87.86;101264.99;107951;1276;60981;-84
2022/07/15 01:25:21;;;;;;;;;;;;;;;12.52;87.46;101267.18;108139;1276;60334;-83
2022/07/15 01:27:51;;;;;;;;;;;;;;;12.54;86.58;101266.46;108082;1276;74673;-83
2022/07/15 01:30:18;;;;;;;;;;;;;;;12.56;86.19;101266.63;108049;1277;72379;-82
2022/07/15 01:32:44;;;;;;;;;;;;;;;12.57;85.59;101265.62;108133;1277;74026;-83
2022/07/15 01:35:11;;;;;;;;;;;;;;;12.58;84.80;101271.73;107955;1277;62294;-84
2022/07/15 01:37:38;;;;;;;;;;;;;;;12.58;84.50;101270.20;107971;1276;61969;-83
2022/07/15 01:40:07;;;;;;;;;;;;;;;12.58;83.94;101272.34;107963;1277;74699;-83
2022/07/15 01:42:33;;;;;;;;;;;;;;;12.58;83.77;101271.13;108143;1277;71312;-83
2022/07/15 01:45:00;;;;;;;;;;;;;;;12.56;83.45;101276.30;107925;1277;75182;-83
2022/07/15 01:47:27;;;;;;;;;;;;;;;12.53;83.51;101282.14;108141;1277;63063;-84
2022/07/15 01:49:53;;;;;;;;;;;;;;;12.50;83.46;101283.25;108150;1277;59205;-84
2022/07/15 01:52:20;;;;;;;;;;;;;;;12.46;83.42;101280.48;107973;1277;75154;-83
2022/07/15 01:54:47;;;;;;;;;;;;;;;12.44;83.11;101281.12;108154;1277;71624;-83
2022/07/15 01:57:14;;;;;;;;;;;;;;;12.42;83.26;101284.54;108151;1276;75040;-84
2022/07/15 01:59:41;;;;;;;;;;;;;;;12.40;83.09;101289.91;107963;1276;60707;-84
2022/07/15 02:02:08;;;;;;;;;;;;;;;12.38;83.03;101290.25;108180;1276;60302;-83
2022/07/15 02:04:36;;;;;;;;;;;;;;;12.36;83.23;101292.75;108135;1276;76031;-83
2022/07/15 02:07:04;;;;;;;;;;;;;;;12.35;82.87;101295.21;107965;1277;73065;-84
2022/07/15 02:09:31;;;;;;;;;;;;;;;12.34;82.73;101299.77;107981;1277;73072;-84
2022/07/15 02:11:58;;;;;;;;;;;;;;;12.33;82.73;101297.59;108177;1276;62472;-83
2022/07/15 02:14:25;;;;;;;;;;;;;;;12.31;82.65;101296.36;107965;1277;60364;-84
2022/07/15 02:16:52;;;;;;;;;;;;;;;12.31;82.57;101298.00;107843;1276;75451;-83
2022/07/15 02:19:19;;;;;;;;;;;;;;;12.31;82.55;101296.96;108094;1276;70374;-83
2022/07/15 02:21:46;;;;;;;;;;;;;;;12.30;82.40;101298.02;107974;1277;73105;-84
2022/07/15 02:24:13;;;;;;;;;;;;;;;12.30;82.43;101297.06;108070;1276;62227;-83
2022/07/15 02:26:40;;;;;;;;;;;;;;;12.30;82.51;101300.09;108149;1277;60683;-83
2022/07/15 02:29:07;;;;;;;;;;;;;;;12.28;82.34;101300.80;108141;1277;75814;-84
2022/07/15 02:31:35;;;;;;;;;;;;;;;12.26;82.51;101303.13;108179;1276;72729;-84
2022/07/15 02:34:02;;;;;;;;;;;;;;;12.23;82.35;101304.34;107956;1277;72927;-82
2022/07/15 02:36:29;;;;;;;;;;;;;;;12.20;82.35;101306.45;108090;1276;61276;-82
2022/07/15 02:38:56;;;;;;;;;;;;;;;12.15;82.48;101304.66;108130;1277;60593;-83
2022/07/15 02:41:23;;;;;;;;;;;;;;;12.11;82.31;101304.92;107885;1277;75962;-83
2022/07/15 02:43:50;;;;;;;;;;;;;;;12.08;82.44;101308.14;107961;1277;72420;-82
2022/07/15 02:46:17;;;;;;;;;;;;;;;12.04;82.52;101310.55;107789;1277;74916;-83
2022/07/15 02:48:44;;;;;;;;;;;;;;;12.00;82.84;101312.59;108151;1277;63181;-83
2022/07/15 02:51:11;;;;;;;;;;;;;;;11.97;82.82;101313.27;108185;1276;59325;-82
2022/07/15 02:53:38;;;;;;;;;;;;;;;11.94;82.92;101314.53;108148;1276;74857;-82
2022/07/15 02:56:06;;;;;;;;;;;;;;;11.90;82.99;101315.96;108143;1276;71398;-82
2022/07/15 02:58:32;;;;;;;;;;;;;;;11.87;83.21;101314.85;107983;1277;73527;-82
2022/07/15 03:00:59;;;;;;;;;;;;;;;11.84;83.41;101316.02;108158;1277;62280;-82
2022/07/15 03:03:30;;;;;;;;;;;;;;;11.81;83.42;101318.48;108158;1277;60271;-82
2022/07/15 03:05:57;;;;;;;;;;;;;;;11.78;83.58;101320.43;108156;1276;76358;-82
2022/07/15 03:08:24;;;;;;;;;;;;;;;11.75;83.56;101318.68;107995;1277;72678;-82
2022/07/15 03:10:51;;;;;;;;;;;;;;;11.70;83.72;101320.55;107985;1276;73061;-82
2022/07/15 03:13:18;;;;;;;;;;;;;;;11.67;84.03;101321.41;108120;1276;63050;-82
2022/07/15 03:15:45;;;;;;;;;;;;;;;11.64;84.24;101318.78;108169;1277;60066;-82
2022/07/15 03:18:12;;;;;;;;;;;;;;;11.60;84.42;101322.34;107966;1277;75022;-82
2022/07/15 03:20:39;;;;;;;;;;;;;;;11.58;85.06;101325.98;108132;1277;71386;-82
2022/07/15 03:23:13;;;;;;;;;;;;;;;11.56;85.51;101329.55;108247;1276;74084;-82
2022/07/15 03:25:40;;;;;;;;;;;;;;;11.54;85.79;101329.80;108293;1276;62328;-82
2022/07/15 03:28:07;;;;;;;;;;;;;;;11.53;86.41;101329.39;108427;1276;60443;-82
2022/07/15 03:30:34;;;;;;;;;;;;;;;11.52;86.38;101331.41;108437;1276;76192;-82
2022/07/15 03:33:01;;;;;;;;;;;;;;;11.51;86.53;101335.39;108347;1277;71437;-82
2022/07/15 03:35:28;;;;;;;;;;;;;;;11.50;86.57;101336.23;108442;1277;72929;-82
2022/07/15 03:37:55;;;;;;;;;;;;;;;11.50;86.80;101330.95;107908;1277;62262;-83
2022/07/15 03:40:21;;;;;;;;;;;;;;;11.50;87.29;101334.12;108107;1276;60618;-82
2022/07/15 03:42:48;;;;;;;;;;;;;;;11.49;87.09;101333.36;108072;1276;59147;-82
2022/07/15 03:45:15;;;;;;;;;;;;;;;11.48;87.14;101327.13;108229;1276;72684;-82
2022/07/15 03:47:41;;;;;;;;;;;;;;;11.47;87.22;101328.95;108108;1276;59294;-82
2022/07/15 03:50:09;;;;;;;;;;;;;;;11.45;87.63;101333.92;108016;1277;62205;-82
2022/07/15 03:52:39;;;;;;;;;;;;;;;11.44;87.96;101336.15;108006;1276;60564;-82
2022/07/15 03:55:06;;;;;;;;;;;;;;;11.43;87.83;101334.65;108053;1277;75136;-82
2022/07/15 03:57:33;;;;;;;;;;;;;;;11.43;88.12;101331.80;107853;1277;71127;-82
2022/07/15 04:00:00;;;;;;;;;;;;;;;11.43;87.99;101331.99;108120;1275;74144;-82
2022/07/15 04:02:27;;;;;;;;;;;;;;;11.44;88.06;101329.96;107846;1277;62426;-82
2022/07/15 04:04:57;;;;;;;;;;;;;;;11.45;87.85;101330.03;108162;1276;60152;-82
2022/07/15 04:07:24;;;;;;;;;;;;;;;11.48;87.96;101329.38;108177;1277;75121;-82
2022/07/15 04:09:50;;;;;;;;;;;;;;;11.52;87.85;101330.21;108031;1277;71403;-82
2022/07/15 04:12:17;;;;;;;;;;;;;;;11.56;87.83;101333.44;108144;1276;73033;-82
2022/07/15 04:14:44;;;;;;;;;;;;;;;11.62;87.83;101338.85;108152;1276;63079;-82
2022/07/15 04:17:13;;;;;;;;;;;;;;;11.68;87.91;101338.15;107913;1276;60816;-82
2022/07/15 04:19:40;;;;;;;;;;;;;;;11.75;87.94;101341.67;108037;1276;74945;-82
2022/07/15 04:22:07;;;;;;;;;;;;;;;11.81;87.74;101341.53;108176;1276;71406;-82
2022/07/15 04:24:34;;;;;;;;;;;;;;;11.87;87.78;101346.76;108072;1277;74060;-82
2022/07/15 04:27:01;;;;;;;;;;;;;;;11.93;87.61;101345.74;108141;1276;62640;-82
2022/07/15 04:29:29;;;;;;;;;;;;;;;12.00;87.59;101348.52;108105;1277;60753;-82
2022/07/15 04:31:55;;;;;;;;;;;;;;;12.08;87.15;101348.42;108139;1276;75285;-82
2022/07/15 04:34:22;;;;;;;;;;;;;;;12.17;86.79;101349.36;108188;1276;73045;-82
2022/07/15 04:36:49;;;;;;;;;;;;;;;12.26;86.35;101349.13;108027;1277;74192;-82
2022/07/15 04:39:15;;;;;;;;;;;;;;;12.35;85.46;101353.79;108157;1276;63545;-82
2022/07/15 04:41:42;;;;;;;;;;;;;;;12.43;84.31;101351.30;108116;1276;61379;-81
2022/07/15 04:44:09;;;;;;;;;;;;;;;12.51;84.10;101351.45;108157;1276;74576;-82
2022/07/15 04:46:36;;;;;;;;;;;;;;;12.58;83.40;101354.14;108188;1277;71597;-83
2022/07/15 04:51:48;;;;;;;;;;;;;;;12.77;82.75;101353.37;108157;1277;63287;-84
2022/07/15 04:54:15;;;;;;;;;;;;;;;12.83;82.30;101352.23;108102;1276;59078;-84
2022/07/15 04:56:41;;;;;;;;;;;;;;;12.89;81.87;101351.40;108189;1275;76043;-84
2022/07/15 04:59:08;;;;;;;;;;;;;;;12.96;81.69;101353.48;108011;1277;71829;-83
2022/07/15 05:01:34;;;;;;;;;;;;;;;13.01;81.36;101354.19;107995;1277;73024;-83
2022/07/15 05:04:01;;;;;;;;;;;;;;;13.07;81.13;101354.73;108112;1276;62271;-84
2022/07/15 05:06:27;;;;;;;;;;;;;;;13.13;80.70;101358.02;108140;1276;60898;-84
2022/07/15 05:08:54;;;;;;;;;;;;;;;13.17;80.65;101354.05;108104;1276;76232;-84
2022/07/15 05:11:21;;;;;;;;;;;;;;;13.21;80.20;101359.90;108140;1276;72927;-85
2022/07/15 05:13:47;;;;;;;;;;;;;;;13.23;79.79;101361.77;108148;1276;72720;-84
2022/07/15 05:16:14;;;;;;;;;;;;;;;13.28;79.81;101361.27;108105;1276;59240;-85
2022/07/15 05:18:41;;;;;;;;;;;;;;;13.32;79.39;101361.83;108143;1276;60215;-84
2022/07/15 05:21:08;;;;;;;;;;;;;;;13.36;78.90;101362.83;108230;1277;75933;-82
2022/07/15 05:23:35;;;;;;;;;;;;;;;13.40;78.95;101367.27;108076;1276;71788;-83
2022/07/15 05:26:03;;;;;;;;;;;;;;;13.43;78.79;101367.95;108049;1277;73004;-82
2022/07/15 05:28:33;;;;;;;;;;;;;;;13.50;78.90;101370.80;108190;1276;61219;-82
2022/07/15 05:31:01;;;;;;;;;;;;;;;13.56;78.61;101371.92;107952;1277;60135;-82
2022/07/15 05:33:30;;;;;;;;;;;;;;;13.62;78.74;101373.34;108128;1276;76804;-81
2022/07/15 05:36:10;;;;;;;;;;;;;;;13.68;78.76;101379.73;108242;1276;71436;-82
2022/07/15 05:38:37;;;;;;;;;;;;;;;13.76;78.39;101380.59;108186;1276;74068;-82
2022/07/15 05:41:07;;;;;;;;;;;;;;;13.81;78.27;101378.48;108001;1276;62424;-81
2022/07/15 05:43:34;;;;;;;;;;;;;;;13.87;78.11;101384.12;107971;1277;60338;-80
2022/07/15 05:46:01;;;;;;;;;;;;;;;13.87;78.34;101373.94;107965;1277;76315;-82
2022/07/15 05:48:30;;;;;;;;;;;;;;;13.90;78.52;101371.23;108150;1276;70360;-82
2022/07/15 05:50:57;;;;;;;;;;;;;;;13.95;78.25;101374.23;108138;1276;75112;-82
2022/07/15 05:53:24;;;;;;;;;;;;;;;13.97;78.08;101378.61;108144;1275;62358;-82
2022/07/15 05:55:52;;;;;;;;;;;;;;;14.01;78.03;101378.35;108110;1276;60786;-81
2022/07/15 05:58:19;;;;;;;;;;;;;;;14.05;77.94;101377.48;108165;1277;76505;-84
2022/07/15 06:00:46;;;;;;;;;;;;;;;14.10;77.48;101380.64;108126;1276;71470;-84
2022/07/15 06:03:12;;;;;;;;;;;;;;;14.14;77.24;101382.46;108148;1276;72285;-84
2022/07/15 06:05:40;;;;;;;;;;;;;;;14.21;77.31;101385.56;108007;1276;64841;-83
2022/07/15 06:08:07;;;;;;;;;;;;;;;14.26;76.88;101388.55;108152;1276;61244;-84
2022/07/15 06:10:34;;;;;;;;;;;;;;;14.30;76.45;101392.22;107964;1277;74858;-84
2022/07/15 06:13:00;;;;;;;;;;;;;;;14.35;76.28;101399.95;108123;1276;71260;-84
2022/07/15 06:15:27;;;;;;;;;;;;;;;14.40;75.54;101403.64;108342;1277;72937;-84
2022/07/15 06:17:54;;;;;;;;;;;;;;;14.45;75.30;101406.75;108169;1277;62660;-84
2022/07/15 06:20:21;;;;;;;;;;;;;;;14.55;74.63;101405.76;108302;1276;60337;-84
2022/07/15 06:22:48;;;;;;;;;;;;;;;14.60;73.72;101404.27;108132;1277;75013;-86
2022/07/15 06:25:15;;;;;;;;;;;;;;;14.66;73.77;101404.20;107886;1276;70247;-84
2022/07/15 06:27:42;;;;;;;;;;;;;;;14.73;73.60;101412.41;108308;1276;73165;-84
2022/07/15 06:30:09;;;;;;;;;;;;;;;14.75;72.87;101412.33;108242;1276;63462;-84
2022/07/15 06:32:36;;;;;;;;;;;;;;;14.78;72.51;101411.02;108209;1277;60226;-84
2022/07/15 06:35:03;;;;;;;;;;;;;;;14.86;72.50;101408.81;108164;1276;75003;-84
2022/07/15 06:37:29;;;;;;;;;;;;;;;14.93;72.22;101412.11;108369;1276;71111;-84
2022/07/15 06:39:57;;;;;;;;;;;;;;;15.01;71.95;101408.26;108331;1276;73961;-84
2022/07/15 06:42:23;;;;;;;;;;;;;;;15.02;71.62;101409.14;108194;1277;62024;-83
2022/07/15 06:44:50;;;;;;;;;;;;;;;15.07;71.70;101407.52;108123;1277;61421;-84
2022/07/15 06:47:17;;;;;;;;;;;;;;;15.18;71.54;101409.78;108208;1277;75008;-84
2022/07/15 06:49:44;;;;;;;;;;;;;;;15.34;71.07;101409.06;108200;1277;71776;-84
2022/07/15 06:52:11;;;;;;;;;;;;;;;15.41;70.34;101414.31;108291;1276;73768;-84
2022/07/15 06:54:39;;;;;;;;;;;;;;;15.50;70.04;101415.65;108018;1276;62468;-83
2022/07/15 06:57:05;;;;;;;;;;;;;;;15.65;68.63;101409.90;108357;1276;61348;-84
2022/07/15 06:59:33;;;;;;;;;;;;;;;15.75;68.59;101414.16;108307;1276;73924;-83
2022/07/15 07:01:59;;;;;;;;;;;;;;;15.86;68.16;101414.79;108208;1277;71270;-84
2022/07/15 07:04:27;;;;;;;;;;;;;;;15.92;66.90;101412.98;108151;1277;71773;-85
2022/07/15 07:06:53;;;;;;;;;;;;;;;15.99;66.62;101411.94;108349;1275;63163;-86
2022/07/15 07:09:20;;;;;;;;;;;;;;;16.02;66.14;101412.17;108146;1276;60279;-83
2022/07/15 07:11:47;;;;;;;;;;;;;;;16.05;64.81;101413.63;108314;1276;73911;-84
2022/07/15 07:14:15;;;;;;;;;;;;;;;16.04;64.76;101414.48;108350;1276;71519;-85
2022/07/15 07:16:42;;;;;;;;;;;;;;;16.03;65.15;101411.60;108352;1276;72915;-84
2022/07/15 07:19:09;;;;;;;;;;;;;;;16.06;65.53;101413.20;108300;1276;62348;-84
2022/07/15 07:21:36;;;;;;;;;;;;;;;16.08;65.29;101422.67;108181;1276;59210;-84
2022/07/15 07:24:03;;;;;;;;;;;;;;;16.04;65.16;101416.21;108287;1276;75331;-84
2022/07/15 07:26:30;;;;;;;;;;;;;;;16.09;65.28;101421.20;108374;1276;70374;-84
2022/07/15 07:28:57;;;;;;;;;;;;;;;16.12;65.19;101416.89;108137;1277;73095;-85
2022/07/15 07:31:26;;;;;;;;;;;;;;;16.17;63.90;101423.23;108300;1275;63301;-85
2022/07/15 07:33:55;;;;;;;;;;;;;;;16.25;61.94;101426.22;108173;1277;58752;-84
2022/07/15 07:36:22;;;;;;;;;;;;;;;16.30;59.35;101421.32;108036;1277;75770;-84
2022/07/15 07:38:49;;;;;;;;;;;;;;;16.40;59.30;101420.04;108379;1276;71435;-84
2022/07/15 07:41:15;;;;;;;;;;;;;;;16.49;58.39;101426.31;108344;1276;71746;-85
2022/07/15 07:43:42;;;;;;;;;;;;;;;16.57;58.19;101415.35;108357;1276;60885;-84
2022/07/15 07:46:10;;;;;;;;;;;;;;;16.68;58.15;101410.84;108363;1276;58736;-84
2022/07/15 07:48:38;;;;;;;;;;;;;;;16.82;57.96;101415.44;108137;1276;75854;-84
2022/07/15 07:51:06;;;;;;;;;;;;;;;16.90;57.56;101413.46;108331;1276;72051;-84
2022/07/15 07:53:33;;;;;;;;;;;;;;;17.03;58.39;101411.96;108359;1276;74570;-84
2022/07/15 07:56:00;;;;;;;;;;;;;;;17.12;57.53;101412.65;108362;1276;60169;-82
2022/07/15 07:58:27;;;;;;;;;;;;;;;17.21;57.60;101411.85;108142;1276;59799;-83
2022/07/15 08:00:55;;;;;;;;;;;;;;;17.21;57.49;101410.91;108374;1276;77347;-84
2022/07/15 08:03:22;;;;;;;;;;;;;;;17.23;57.28;101405.50;108159;1277;71440;-83
2022/07/15 08:05:49;;;;;;;;;;;;;;;17.18;56.27;101409.87;108377;1276;74031;-83
2022/07/15 08:08:17;;;;;;;;;;;;;;;17.21;55.94;101407.04;108093;1277;60514;-84
2022/07/15 08:10:45;;;;;;;;;;;;;;;17.25;56.18;101407.45;108163;1276;60573;-84
2022/07/15 08:13:14;;;;;;;;;;;;;;;17.29;56.09;101408.83;108244;1276;75681;-83
2022/07/15 08:15:41;;;;;;;;;;;;;;;17.28;55.66;101405.94;108052;1276;71381;-84
2022/07/15 08:18:08;;;;;;;;;;;;;;;17.23;55.75;101404.56;108380;1277;75540;-83
2022/07/15 08:20:36;;;;;;;;;;;;;;;17.18;55.36;101412.19;107982;1277;60673;-83
2022/07/15 08:23:03;;;;;;;;;;;;;;;17.16;55.25;101407.80;108170;1277;59534;-83
2022/07/15 08:25:31;;;;;;;;;;;;;;;17.17;54.92;101410.56;108345;1276;73956;-83
2022/07/15 08:27:59;;;;;;;;;;;;;;;17.31;54.85;101403.39;108353;1276;71511;-84
2022/07/15 08:30:26;;;;;;;;;;;;;;;17.46;53.36;101408.29;108356;1276;72901;-83
2022/07/15 08:32:53;;;;;;;;;;;;;;;17.52;52.91;101412.55;108322;1275;60486;-83
2022/07/15 08:35:20;;;;;;;;;;;;;;;17.53;52.43;101404.06;108352;1276;61525;-81
2022/07/15 08:37:47;;;;;;;;;;;;;;;17.50;52.61;101404.80;108366;1276;75996;-83
2022/07/15 08:40:14;;;;;;;;;;;;;;;17.46;53.04;101413.03;108121;1277;71406;-85
2022/07/15 08:42:43;;;;;;;;;;;;;;;17.37;53.52;101413.46;108391;1276;72444;-83
2022/07/15 08:45:10;;;;;;;;;;;;;;;17.28;53.65;101417.98;108145;1277;60794;-83
2022/07/15 08:47:38;;;;;;;;;;;;;;;17.18;54.18;101411.36;108125;1277;61217;-83
2022/07/15 08:50:19;;;;;;;;;;;;;;;17.13;53.62;101410.70;108084;1276;74260;-83
2022/07/15 08:52:46;;;;;;;;;;;;;;;17.17;52.33;101413.07;108124;1276;72714;-83
2022/07/15 08:55:15;;;;;;;;;;;;;;;17.38;51.33;101405.84;108144;1277;73971;-83
2022/07/15 08:57:46;;;;;;;;;;;;;;;17.56;50.21;101404.94;108178;1276;62369;-83
2022/07/15 09:00:14;;;;;;;;;;;;;;;17.82;48.84;101394.58;108139;1277;60344;-84
2022/07/15 09:02:42;;;;;;;;;;;;;;;18.00;48.68;101395.20;108422;1276;74881;-84
2022/07/15 09:05:21;;;;;;;;;;;;;;;17.94;48.84;101400.16;108352;1277;72620;-85
2022/07/15 09:07:53;;;;;;;;;;;;;;;17.82;49.24;101403.41;108200;1277;74594;-84
2022/07/15 09:10:21;;;;;;;;;;;;;;;17.73;50.17;101408.50;108159;1276;61082;-84
2022/07/15 09:12:51;;;;;;;;;;;;;;;17.61;50.36;101414.80;108324;1277;60553;-85
2022/07/15 09:15:28;;;;;;;;;;;;;;;17.46;50.76;101415.06;108379;1275;74889;-85
2022/07/15 09:18:15;;;;;;;;;;;;;;;17.32;50.91;101420.34;108134;1277;72542;-84
2022/07/15 09:20:43;;;;;;;;;;;;;;;17.25;51.37;101414.38;108388;1276;74603;-85
2022/07/15 09:23:10;;;;;;;;;;;;;;;17.26;50.78;101418.60;108338;1275;59284;-85
2022/07/15 09:25:38;;;;;;;;;;;;;;;17.30;50.35;101409.71;108126;1277;60337;-84
2022/07/15 09:28:06;;;;;;;;;;;;;;;17.42;50.53;101410.34;108344;1276;73572;-84
2022/07/15 09:33:36;;;;;;;;;;;;;;;17.85;50.47;101420.84;108338;1276;72980;-84
2022/07/15 09:36:09;;;;;;;;;;;;;;;17.94;49.00;101427.71;108188;1276;61574;-84
2022/07/15 09:38:40;;;;;;;;;;;;;;;17.91;49.58;101426.10;108394;1276;60754;-84
2022/07/15 09:41:26;;;;;;;;;;;;;;;17.91;49.75;101427.38;108171;1275;75108;-84
2022/07/15 09:44:04;;;;;;;;;;;;;;;17.86;49.53;101427.38;108327;1276;72488;-83
2022/07/15 09:46:41;;;;;;;;;;;;;;;17.78;49.60;101428.66;108158;1276;72810;-81
2022/07/15 09:49:08;;;;;;;;;;;;;;;17.63;49.54;101425.21;108350;1276;60690;-83
2022/07/15 09:51:42;;;;;;;;;;;;;;;17.54;50.12;101427.25;108344;1276;59306;-82
2022/07/15 09:54:12;;;;;;;;;;;;;;;17.46;50.87;101431.04;108185;1277;76466;-83
2022/07/15 09:56:39;;;;;;;;;;;;;;;17.39;51.57;101432.48;108082;1277;71488;-83
2022/07/15 09:59:06;;;;;;;;;;;;;;;17.34;52.18;101435.98;108379;1276;75196;-84
2022/07/15 10:01:33;;;;;;;;;;;;;;;17.31;52.67;101437.30;108156;1277;60678;-83
2022/07/15 10:04:01;;;;;;;;;;;;;;;17.33;53.13;101438.09;108124;1277;60204;-83
2022/07/15 10:06:28;;;;;;;;;;;;;;;17.48;53.47;101432.64;108138;1277;76091;-83
2022/07/15 10:08:55;;;;;;;;;;;;;;;17.70;53.37;101435.02;108219;1277;70411;-84
2022/07/15 10:11:22;;;;;;;;;;;;;;;17.93;53.10;101436.13;108299;1276;73039;-84
2022/07/15 10:14:09;;;;;;;;;;;;;;;18.06;52.23;101442.61;108370;1276;60698;-84
2022/07/15 10:16:35;;;;;;;;;;;;;;;18.05;52.26;101440.64;108345;1276;61380;-84
2022/07/15 10:19:08;;;;;;;;;;;;;;;18.01;52.36;101437.95;108400;1276;76204;-83
2022/07/15 10:21:34;;;;;;;;;;;;;;;17.93;52.48;101437.58;108285;1275;71405;-83
2022/07/15 10:24:20;;;;;;;;;;;;;;;17.83;52.05;101439.05;108372;1276;75044;-84
2022/07/15 10:27:04;;;;;;;;;;;;;;;17.78;52.32;101439.31;108338;1276;59868;-84
2022/07/15 10:29:32;;;;;;;;;;;;;;;17.73;52.52;101438.61;108355;1276;60315;-86
2022/07/15 10:32:00;;;;;;;;;;;;;;;17.74;52.56;101442.40;108372;1276;76099;-84
2022/07/15 10:34:31;;;;;;;;;;;;;;;17.72;52.66;101436.70;108337;1276;71473;-83
2022/07/15 10:36:59;;;;;;;;;;;;;;;17.71;52.60;101438.14;108353;1276;73106;-83
2022/07/15 10:39:55;;;;;;;;;;;;;;;17.70;52.74;101437.69;108301;1275;60621;-84
2022/07/15 10:42:22;;;;;;;;;;;;;;;17.76;52.79;101438.89;108183;1276;60055;-84
2022/07/15 10:44:58;;;;;;;;;;;;;;;17.82;52.38;101438.27;108290;1276;75606;-84
2022/07/15 10:47:25;;;;;;;;;;;;;;;17.88;51.98;101434.45;108397;1276;71979;-83
2022/07/15 10:49:51;;;;;;;;;;;;;;;17.99;51.51;101425.52;108155;1277;74005;-84
2022/07/15 10:52:26;;;;;;;;;;;;;;;18.10;51.08;101424.57;108101;1277;61870;-84
2022/07/15 10:54:56;;;;;;;;;;;;;;;18.22;50.24;101425.18;108329;1276;61139;-82
2022/07/15 10:57:40;;;;;;;;;;;;;;;18.35;50.35;101424.60;108345;1276;75850;-83
2022/07/15 11:00:25;;;;;;;;;;;;;;;18.54;50.44;101432.80;108133;1277;71231;-83
2022/07/15 11:03:21;;;;;;;;;;;;;;;18.76;49.98;101436.56;108545;1276;71708;-84
2022/07/15 11:05:48;;;;;;;;;;;;;;;19.00;49.23;101430.54;108448;1276;60532;-84
2022/07/15 11:08:33;;;;;;;;;;;;;;;19.17;48.47;101432.16;108640;1276;60322;-83
2022/07/15 11:11:15;;;;;;;;;;;;;;;19.33;48.12;101434.02;108441;1277;74774;-83
2022/07/15 11:13:44;;;;;;;;;;;;;;;19.53;47.83;101427.66;108533;1274;71184;-84
2022/07/15 11:16:17;;;;;;;;;;;;;;;19.57;46.93;101427.23;108444;1275;74473;-83
2022/07/15 11:18:50;;;;;;;;;;;;;;;19.69;46.54;101428.48;108383;1276;60950;-84
2022/07/15 11:21:17;;;;;;;;;;;;;;;19.88;46.27;101426.09;108377;1276;60377;-84
2022/07/15 11:23:44;;;;;;;;;;;;;;;20.08;46.08;101418.10;108332;1276;76937;-84
2022/07/15 11:26:11;;;;;;;;;;;;;;;20.25;45.47;101417.08;108375;1276;72728;-84
2022/07/15 11:28:38;;;;;;;;;;;;;;;20.42;44.82;101415.89;108102;1277;72912;-83
2022/07/15 11:31:05;;;;;;;;;;;;;;;20.62;44.32;101412.26;108176;1277;60948;-84
2022/07/15 11:33:33;;;;;;;;;;;;;;;20.87;43.61;101403.22;108347;1275;60297;-84
2022/07/15 11:36:01;;;;;;;;;;;;;;;21.01;42.95;101400.64;108387;1276;76723;-83
2022/07/15 11:38:32;;;;;;;;;;;;;;;21.11;42.72;101397.40;108345;1276;71322;-83
2022/07/15 11:44:32;;;;;;;;;;;;;;;21.18;41.68;101399.02;108168;1277;60998;-83
2022/07/15 11:46:59;;;;;;;;;;;;;;;21.16;41.89;101390.38;108385;1276;62694;-84
2022/07/15 11:49:27;;;;;;;;;;;;;;;21.14;42.17;101386.52;108120;1276;76016;-84
2022/07/15 11:51:54;;;;;;;;;;;;;;;21.10;42.49;101387.72;108123;1277;71406;-84
2022/07/15 11:54:20;;;;;;;;;;;;;;;21.13;42.67;101384.20;108374;1276;71907;-83
2022/07/15 11:56:54;;;;;;;;;;;;;;;21.13;42.36;101379.67;108319;1276;59978;-85
2022/07/15 11:59:20;;;;;;;;;;;;;;;21.10;42.63;101387.23;108303;1276;60172;-85
2022/07/15 12:01:48;;;;;;;;;;;;;;;21.09;42.64;101382.64;108367;1276;75695;-83
2022/07/15 12:04:16;;;;;;;;;;;;;;;21.25;42.70;101376.79;108407;1274;71468;-83
2022/07/15 12:06:42;;;;;;;;;;;;;;;21.42;41.80;101377.63;108152;1277;73787;-83
2022/07/15 12:09:09;;;;;;;;;;;;;;;21.48;41.77;101381.63;108092;1276;60466;-83
2022/07/15 12:11:39;;;;;;;;;;;;;;;21.47;41.64;101382.41;108383;1277;62086;-83
2022/07/15 12:14:07;;;;;;;;;;;;;;;21.41;41.58;101375.11;108484;1276;75736;-84
2022/07/15 12:16:35;;;;;;;;;;;;;;;21.46;41.93;101372.06;108528;1276;71440;-83
2022/07/15 12:19:16;;;;;;;;;;;;;;;21.51;42.25;101364.92;108643;1277;72894;-83
2022/07/15 12:21:43;;;;;;;;;;;;;;;21.38;42.31;101373.61;108664;1276;60386;-84
2022/07/15 12:24:15;;;;;;;;;;;;;;;21.18;42.48;101371.36;108745;1276;60339;-83
2022/07/15 12:26:54;;;;;;;;;;;;;;;21.10;43.14;101363.21;108521;1278;74847;-83
2022/07/15 12:29:22;;;;;;;;;;;;;;;20.89;42.94;101364.77;108723;1276;71502;-83
2022/07/15 12:32:08;;;;;;;;;;;;;;;20.53;43.59;101365.39;108604;1277;72829;-83
2022/07/15 12:34:47;;;;;;;;;;;;;;;20.38;44.15;101367.20;108716;1276;60332;-83
2022/07/15 12:37:47;;;;;;;;;;;;;;;20.21;43.87;101368.95;108719;1276;60119;-82
2022/07/15 12:40:20;;;;;;;;;;;;;;;20.07;44.81;101368.19;108539;1277;76017;-84
2022/07/15 12:42:50;;;;;;;;;;;;;;;19.92;44.93;101369.56;108699;1276;71939;-84